sensor_id;sensor_type;location;lat;lon;timestamp;P1;durP1;ratioP1;P2;durP2;ratioP2
4268;SDS011;2148;48.554;7.834;2023-06-26T00:00:19;9.53;;;6.73;;
4268;SDS011;2148;48.554;7.834;2023-06-26T00:02:44;7.10;;;6.40;;
4268;SDS011;2148;48.554;7.834;2023-06-26T00:05:10;7.80;;;7.00;;
4268;SDS011;2148;48.554;7.834;2023-06-26T00:07:35;6.97;;;6.37;;
4268;SDS011;2148;48.554;7.834;2023-06-26T00:10:02;7.10;;;6.40;;
4268;SDS011;2148;48.554;7.834;2023-06-26T00:12:28;7.47;;;6.77;;
4268;SDS011;2148;48.554;7.834;2023-06-26T00:14:53;7.20;;;6.17;;
4268;SDS011;2148;48.554;7.834;2023-06-26T00:17:19;6.87;;;6.27;;
4268;SDS011;2148;48.554;7.834;2023-06-26T00:19:44;7.20;;;6.40;;
4268;SDS011;2148;48.554;7.834;2023-06-26T00:22:09;6.73;;;6.13;;
4268;SDS011;2148;48.554;7.834;2023-06-26T00:24:36;7.80;;;7.03;;
4268;SDS011;2148;48.554;7.834;2023-06-26T00:27:01;7.57;;;6.70;;
4268;SDS011;2148;48.554;7.834;2023-06-26T00:29:26;7.60;;;6.90;;
4268;SDS011;2148;48.554;7.834;2023-06-26T00:31:52;7.77;;;6.97;;
4268;SDS011;2148;48.554;7.834;2023-06-26T00:34:17;7.23;;;6.53;;
4268;SDS011;2148;48.554;7.834;2023-06-26T00:36:42;7.40;;;6.70;;
4268;SDS011;2148;48.554;7.834;2023-06-26T00:39:08;7.30;;;6.60;;
4268;SDS011;2148;48.554;7.834;2023-06-26T00:41:34;7.40;;;6.70;;
4268;SDS011;2148;48.554;7.834;2023-06-26T00:44:00;12.43;;;6.97;;
4268;SDS011;2148;48.554;7.834;2023-06-26T00:46:25;8.07;;;7.00;;
4268;SDS011;2148;48.554;7.834;2023-06-26T00:48:50;7.30;;;6.60;;
4268;SDS011;2148;48.554;7.834;2023-06-26T00:51:16;8.23;;;6.73;;
4268;SDS011;2148;48.554;7.834;2023-06-26T00:53:42;8.07;;;7.27;;
4268;SDS011;2148;48.554;7.834;2023-06-26T00:56:08;8.03;;;7.20;;
4268;SDS011;2148;48.554;7.834;2023-06-26T00:58:33;8.23;;;7.40;;
4268;SDS011;2148;48.554;7.834;2023-06-26T01:00:58;7.27;;;6.43;;
4268;SDS011;2148;48.554;7.834;2023-06-26T01:03:25;9.40;;;6.67;;
4268;SDS011;2148;48.554;7.834;2023-06-26T01:05:52;7.87;;;7.17;;
4268;SDS011;2148;48.554;7.834;2023-06-26T01:08:17;8.17;;;7.37;;
4268;SDS011;2148;48.554;7.834;2023-06-26T01:10:43;8.67;;;6.77;;
4268;SDS011;2148;48.554;7.834;2023-06-26T01:13:09;8.70;;;7.43;;
4268;SDS011;2148;48.554;7.834;2023-06-26T01:15:34;9.27;;;7.20;;
4268;SDS011;2148;48.554;7.834;2023-06-26T01:17:59;7.50;;;6.80;;
4268;SDS011;2148;48.554;7.834;2023-06-26T01:20:29;6.80;;;6.20;;
4268;SDS011;2148;48.554;7.834;2023-06-26T01:23:29;7.33;;;6.63;;
4268;SDS011;2148;48.554;7.834;2023-06-26T01:28:33;7.63;;;6.90;;
4268;SDS011;2148;48.554;7.834;2023-06-26T01:30:59;7.60;;;6.90;;
4268;SDS011;2148;48.554;7.834;2023-06-26T01:33:25;8.63;;;6.70;;
4268;SDS011;2148;48.554;7.834;2023-06-26T01:35:50;8.87;;;7.30;;
4268;SDS011;2148;48.554;7.834;2023-06-26T01:38:17;7.40;;;6.70;;
4268;SDS011;2148;48.554;7.834;2023-06-26T01:40:43;8.37;;;6.93;;
4268;SDS011;2148;48.554;7.834;2023-06-26T01:43:11;7.20;;;6.50;;
4268;SDS011;2148;48.554;7.834;2023-06-26T01:45:45;8.47;;;6.93;;
4268;SDS011;2148;48.554;7.834;2023-06-26T01:48:11;7.23;;;6.53;;
4268;SDS011;2148;48.554;7.834;2023-06-26T01:50:37;8.93;;;6.77;;
4268;SDS011;2148;48.554;7.834;2023-06-26T01:53:04;8.10;;;7.03;;
4268;SDS011;2148;48.554;7.834;2023-06-26T01:58:01;7.90;;;7.20;;
4268;SDS011;2148;48.554;7.834;2023-06-26T02:00:27;7.93;;;7.13;;
4268;SDS011;2148;48.554;7.834;2023-06-26T02:02:52;7.97;;;6.67;;
4268;SDS011;2148;48.554;7.834;2023-06-26T02:05:18;7.30;;;6.63;;
4268;SDS011;2148;48.554;7.834;2023-06-26T02:07:43;8.83;;;7.50;;
4268;SDS011;2148;48.554;7.834;2023-06-26T02:10:11;7.10;;;6.40;;
4268;SDS011;2148;48.554;7.834;2023-06-26T02:12:37;9.20;;;7.40;;
4268;SDS011;2148;48.554;7.834;2023-06-26T02:15:03;8.23;;;7.23;;
4268;SDS011;2148;48.554;7.834;2023-06-26T02:17:29;7.57;;;6.87;;
4268;SDS011;2148;48.554;7.834;2023-06-26T02:19:54;8.07;;;7.37;;
4268;SDS011;2148;48.554;7.834;2023-06-26T02:22:20;7.60;;;6.90;;
4268;SDS011;2148;48.554;7.834;2023-06-26T02:24:45;7.30;;;6.60;;
4268;SDS011;2148;48.554;7.834;2023-06-26T02:27:10;8.40;;;7.50;;
4268;SDS011;2148;48.554;7.834;2023-06-26T02:29:36;7.50;;;6.80;;
4268;SDS011;2148;48.554;7.834;2023-06-26T02:32:01;7.73;;;6.67;;
4268;SDS011;2148;48.554;7.834;2023-06-26T02:34:26;9.37;;;7.13;;
4268;SDS011;2148;48.554;7.834;2023-06-26T02:36:52;9.47;;;7.50;;
4268;SDS011;2148;48.554;7.834;2023-06-26T02:39:20;8.10;;;7.27;;
4268;SDS011;2148;48.554;7.834;2023-06-26T02:41:46;9.07;;;7.30;;
4268;SDS011;2148;48.554;7.834;2023-06-26T02:44:11;8.03;;;7.33;;
4268;SDS011;2148;48.554;7.834;2023-06-26T02:46:37;9.23;;;6.70;;
4268;SDS011;2148;48.554;7.834;2023-06-26T02:49:02;9.03;;;7.73;;
4268;SDS011;2148;48.554;7.834;2023-06-26T02:51:28;7.23;;;6.53;;
4268;SDS011;2148;48.554;7.834;2023-06-26T02:53:53;9.57;;;7.53;;
4268;SDS011;2148;48.554;7.834;2023-06-26T02:56:18;9.20;;;7.50;;
4268;SDS011;2148;48.554;7.834;2023-06-26T02:58:44;7.77;;;6.97;;
4268;SDS011;2148;48.554;7.834;2023-06-26T03:01:09;8.50;;;7.00;;
4268;SDS011;2148;48.554;7.834;2023-06-26T03:03:34;7.93;;;6.77;;
4268;SDS011;2148;48.554;7.834;2023-06-26T03:06:06;8.47;;;7.53;;
4268;SDS011;2148;48.554;7.834;2023-06-26T03:08:32;10.20;;;7.37;;
4268;SDS011;2148;48.554;7.834;2023-06-26T03:10:58;8.47;;;7.50;;
4268;SDS011;2148;48.554;7.834;2023-06-26T03:13:23;9.53;;;7.80;;
4268;SDS011;2148;48.554;7.834;2023-06-26T03:15:48;9.07;;;7.20;;
4268;SDS011;2148;48.554;7.834;2023-06-26T03:18:13;9.47;;;7.37;;
4268;SDS011;2148;48.554;7.834;2023-06-26T03:20:39;9.17;;;7.40;;
4268;SDS011;2148;48.554;7.834;2023-06-26T03:23:04;8.53;;;7.63;;
4268;SDS011;2148;48.554;7.834;2023-06-26T03:25:29;8.90;;;6.83;;
4268;SDS011;2148;48.554;7.834;2023-06-26T03:27:54;8.00;;;7.20;;
4268;SDS011;2148;48.554;7.834;2023-06-26T03:30:20;9.10;;;7.77;;
4268;SDS011;2148;48.554;7.834;2023-06-26T03:32:45;9.73;;;7.53;;
4268;SDS011;2148;48.554;7.834;2023-06-26T03:35:10;8.67;;;7.43;;
4268;SDS011;2148;48.554;7.834;2023-06-26T03:37:35;8.33;;;7.30;;
4268;SDS011;2148;48.554;7.834;2023-06-26T03:40:01;8.20;;;7.37;;
4268;SDS011;2148;48.554;7.834;2023-06-26T03:42:26;8.73;;;7.47;;
4268;SDS011;2148;48.554;7.834;2023-06-26T03:44:51;10.63;;;7.40;;
4268;SDS011;2148;48.554;7.834;2023-06-26T03:47:16;9.33;;;6.97;;
4268;SDS011;2148;48.554;7.834;2023-06-26T03:49:42;7.90;;;7.13;;
4268;SDS011;2148;48.554;7.834;2023-06-26T03:52:07;8.27;;;6.60;;
4268;SDS011;2148;48.554;7.834;2023-06-26T03:54:32;9.43;;;7.27;;
4268;SDS011;2148;48.554;7.834;2023-06-26T03:56:58;8.50;;;6.93;;
4268;SDS011;2148;48.554;7.834;2023-06-26T03:59:23;9.37;;;6.97;;
4268;SDS011;2148;48.554;7.834;2023-06-26T04:01:49;8.20;;;7.03;;
4268;SDS011;2148;48.554;7.834;2023-06-26T04:04:14;10.70;;;6.90;;
4268;SDS011;2148;48.554;7.834;2023-06-26T04:06:39;7.73;;;7.03;;
4268;SDS011;2148;48.554;7.834;2023-06-26T04:09:04;9.43;;;7.47;;
4268;SDS011;2148;48.554;7.834;2023-06-26T04:11:30;7.17;;;6.47;;
4268;SDS011;2148;48.554;7.834;2023-06-26T04:13:55;7.53;;;6.77;;
4268;SDS011;2148;48.554;7.834;2023-06-26T04:16:21;7.60;;;6.80;;
4268;SDS011;2148;48.554;7.834;2023-06-26T04:18:50;7.63;;;6.93;;
4268;SDS011;2148;48.554;7.834;2023-06-26T04:21:15;9.03;;;7.53;;
4268;SDS011;2148;48.554;7.834;2023-06-26T04:23:41;8.43;;;7.30;;
4268;SDS011;2148;48.554;7.834;2023-06-26T04:26:07;9.03;;;7.70;;
4268;SDS011;2148;48.554;7.834;2023-06-26T04:28:33;8.53;;;7.47;;
4268;SDS011;2148;48.554;7.834;2023-06-26T04:30:59;8.20;;;7.17;;
4268;SDS011;2148;48.554;7.834;2023-06-26T04:33:25;11.13;;;7.57;;
4268;SDS011;2148;48.554;7.834;2023-06-26T04:35:51;7.70;;;6.83;;
4268;SDS011;2148;48.554;7.834;2023-06-26T04:38:16;11.17;;;7.77;;
4268;SDS011;2148;48.554;7.834;2023-06-26T04:40:42;9.70;;;7.13;;
4268;SDS011;2148;48.554;7.834;2023-06-26T04:43:07;8.87;;;7.10;;
4268;SDS011;2148;48.554;7.834;2023-06-26T04:45:32;8.47;;;7.27;;
4268;SDS011;2148;48.554;7.834;2023-06-26T04:47:58;8.00;;;6.93;;
4268;SDS011;2148;48.554;7.834;2023-06-26T04:50:25;9.73;;;7.40;;
4268;SDS011;2148;48.554;7.834;2023-06-26T04:52:51;8.57;;;7.23;;
4268;SDS011;2148;48.554;7.834;2023-06-26T04:55:16;8.63;;;7.17;;
4268;SDS011;2148;48.554;7.834;2023-06-26T04:57:41;8.63;;;7.73;;
4268;SDS011;2148;48.554;7.834;2023-06-26T05:00:06;7.50;;;6.80;;
4268;SDS011;2148;48.554;7.834;2023-06-26T05:02:35;8.23;;;7.43;;
4268;SDS011;2148;48.554;7.834;2023-06-26T05:05:01;10.97;;;7.07;;
4268;SDS011;2148;48.554;7.834;2023-06-26T05:07:26;7.33;;;6.63;;
4268;SDS011;2148;48.554;7.834;2023-06-26T05:09:51;7.90;;;7.10;;
4268;SDS011;2148;48.554;7.834;2023-06-26T05:12:17;9.00;;;7.50;;
4268;SDS011;2148;48.554;7.834;2023-06-26T05:14:42;8.90;;;7.40;;
4268;SDS011;2148;48.554;7.834;2023-06-26T05:17:07;11.43;;;8.10;;
4268;SDS011;2148;48.554;7.834;2023-06-26T05:19:32;8.53;;;7.67;;
4268;SDS011;2148;48.554;7.834;2023-06-26T05:21:57;8.33;;;7.47;;
4268;SDS011;2148;48.554;7.834;2023-06-26T05:24:24;8.40;;;7.37;;
4268;SDS011;2148;48.554;7.834;2023-06-26T05:26:50;8.47;;;7.67;;
4268;SDS011;2148;48.554;7.834;2023-06-26T05:29:15;8.70;;;7.90;;
4268;SDS011;2148;48.554;7.834;2023-06-26T05:31:41;9.80;;;7.43;;
4268;SDS011;2148;48.554;7.834;2023-06-26T05:34:07;9.37;;;7.47;;
4268;SDS011;2148;48.554;7.834;2023-06-26T05:36:33;8.50;;;7.70;;
4268;SDS011;2148;48.554;7.834;2023-06-26T05:38:59;7.97;;;7.17;;
4268;SDS011;2148;48.554;7.834;2023-06-26T05:41:25;7.53;;;6.83;;
4268;SDS011;2148;48.554;7.834;2023-06-26T05:43:50;8.77;;;6.60;;
4268;SDS011;2148;48.554;7.834;2023-06-26T05:46:15;9.03;;;6.67;;
4268;SDS011;2148;48.554;7.834;2023-06-26T05:48:41;7.73;;;6.93;;
4268;SDS011;2148;48.554;7.834;2023-06-26T05:51:06;7.77;;;7.07;;
4268;SDS011;2148;48.554;7.834;2023-06-26T05:53:32;7.83;;;6.47;;
4268;SDS011;2148;48.554;7.834;2023-06-26T05:55:58;7.53;;;6.73;;
4268;SDS011;2148;48.554;7.834;2023-06-26T05:58:23;8.57;;;7.27;;
4268;SDS011;2148;48.554;7.834;2023-06-26T06:00:51;7.53;;;6.73;;
4268;SDS011;2148;48.554;7.834;2023-06-26T06:03:17;8.30;;;7.23;;
4268;SDS011;2148;48.554;7.834;2023-06-26T06:05:42;8.13;;;6.30;;
4268;SDS011;2148;48.554;7.834;2023-06-26T06:08:07;8.17;;;6.40;;
4268;SDS011;2148;48.554;7.834;2023-06-26T06:10:32;7.63;;;6.80;;
4268;SDS011;2148;48.554;7.834;2023-06-26T06:12:58;9.17;;;7.20;;
4268;SDS011;2148;48.554;7.834;2023-06-26T06:15:23;7.40;;;6.67;;
4268;SDS011;2148;48.554;7.834;2023-06-26T06:17:48;7.53;;;6.83;;
4268;SDS011;2148;48.554;7.834;2023-06-26T06:20:13;7.00;;;6.27;;
4268;SDS011;2148;48.554;7.834;2023-06-26T06:22:39;8.47;;;6.77;;
4268;SDS011;2148;48.554;7.834;2023-06-26T06:25:04;8.33;;;6.80;;
4268;SDS011;2148;48.554;7.834;2023-06-26T06:27:30;9.37;;;6.90;;
4268;SDS011;2148;48.554;7.834;2023-06-26T06:29:56;7.50;;;6.77;;
4268;SDS011;2148;48.554;7.834;2023-06-26T06:32:21;7.37;;;6.67;;
4268;SDS011;2148;48.554;7.834;2023-06-26T06:34:46;7.03;;;6.33;;
4268;SDS011;2148;48.554;7.834;2023-06-26T06:37:12;8.43;;;6.83;;
4268;SDS011;2148;48.554;7.834;2023-06-26T06:39:37;6.50;;;5.93;;
4268;SDS011;2148;48.554;7.834;2023-06-26T06:42:02;6.93;;;6.30;;
4268;SDS011;2148;48.554;7.834;2023-06-26T06:44:28;7.83;;;6.60;;
4268;SDS011;2148;48.554;7.834;2023-06-26T06:46:55;7.03;;;6.33;;
4268;SDS011;2148;48.554;7.834;2023-06-26T06:49:20;7.30;;;6.60;;
4268;SDS011;2148;48.554;7.834;2023-06-26T06:51:45;8.97;;;6.50;;
4268;SDS011;2148;48.554;7.834;2023-06-26T06:54:11;7.20;;;6.50;;
4268;SDS011;2148;48.554;7.834;2023-06-26T06:56:36;7.23;;;6.47;;
4268;SDS011;2148;48.554;7.834;2023-06-26T06:59:01;6.53;;;5.80;;
4268;SDS011;2148;48.554;7.834;2023-06-26T07:01:27;7.63;;;6.93;;
4268;SDS011;2148;48.554;7.834;2023-06-26T07:03:52;7.30;;;6.60;;
4268;SDS011;2148;48.554;7.834;2023-06-26T07:06:17;7.07;;;6.37;;
4268;SDS011;2148;48.554;7.834;2023-06-26T07:08:42;7.00;;;6.30;;
4268;SDS011;2148;48.554;7.834;2023-06-26T07:11:08;8.37;;;6.53;;
4268;SDS011;2148;48.554;7.834;2023-06-26T07:13:33;8.00;;;6.43;;
4268;SDS011;2148;48.554;7.834;2023-06-26T07:15:58;7.20;;;6.53;;
4268;SDS011;2148;48.554;7.834;2023-06-26T07:18:23;8.03;;;6.87;;
4268;SDS011;2148;48.554;7.834;2023-06-26T07:20:49;8.93;;;6.63;;
4268;SDS011;2148;48.554;7.834;2023-06-26T07:23:14;7.97;;;6.87;;
4268;SDS011;2148;48.554;7.834;2023-06-26T07:25:39;7.00;;;6.40;;
4268;SDS011;2148;48.554;7.834;2023-06-26T07:28:09;6.57;;;5.87;;
4268;SDS011;2148;48.554;7.834;2023-06-26T07:30:35;7.10;;;6.40;;
4268;SDS011;2148;48.554;7.834;2023-06-26T07:33:00;7.93;;;6.93;;
4268;SDS011;2148;48.554;7.834;2023-06-26T07:35:25;8.00;;;7.10;;
4268;SDS011;2148;48.554;7.834;2023-06-26T07:37:52;8.20;;;6.60;;
4268;SDS011;2148;48.554;7.834;2023-06-26T07:40:17;9.60;;;6.87;;
4268;SDS011;2148;48.554;7.834;2023-06-26T07:42:43;10.30;;;6.50;;
4268;SDS011;2148;48.554;7.834;2023-06-26T07:45:08;8.17;;;7.00;;
4268;SDS011;2148;48.554;7.834;2023-06-26T07:47:40;10.40;;;7.77;;
4268;SDS011;2148;48.554;7.834;2023-06-26T07:50:05;8.33;;;6.97;;
4268;SDS011;2148;48.554;7.834;2023-06-26T07:52:31;10.53;;;7.57;;
4268;SDS011;2148;48.554;7.834;2023-06-26T07:54:56;8.17;;;7.30;;
4268;SDS011;2148;48.554;7.834;2023-06-26T07:57:22;8.60;;;7.13;;
4268;SDS011;2148;48.554;7.834;2023-06-26T07:59:47;10.87;;;7.77;;
4268;SDS011;2148;48.554;7.834;2023-06-26T08:02:12;9.57;;;8.10;;
4268;SDS011;2148;48.554;7.834;2023-06-26T08:04:38;9.97;;;7.30;;
4268;SDS011;2148;48.554;7.834;2023-06-26T08:07:03;8.10;;;7.30;;
4268;SDS011;2148;48.554;7.834;2023-06-26T08:09:29;8.60;;;7.70;;
4268;SDS011;2148;48.554;7.834;2023-06-26T08:11:54;10.63;;;7.90;;
4268;SDS011;2148;48.554;7.834;2023-06-26T08:14:20;8.43;;;7.47;;
4268;SDS011;2148;48.554;7.834;2023-06-26T08:16:46;8.90;;;7.97;;
4268;SDS011;2148;48.554;7.834;2023-06-26T08:19:14;8.40;;;7.60;;
4268;SDS011;2148;48.554;7.834;2023-06-26T08:21:40;8.30;;;7.50;;
4268;SDS011;2148;48.554;7.834;2023-06-26T08:24:09;11.07;;;7.97;;
4268;SDS011;2148;48.554;7.834;2023-06-26T08:26:35;8.27;;;7.30;;
4268;SDS011;2148;48.554;7.834;2023-06-26T08:29:01;7.90;;;7.07;;
4268;SDS011;2148;48.554;7.834;2023-06-26T08:31:32;9.83;;;7.10;;
4268;SDS011;2148;48.554;7.834;2023-06-26T08:34:03;7.50;;;5.87;;
4268;SDS011;2148;48.554;7.834;2023-06-26T08:36:29;7.77;;;6.97;;
4268;SDS011;2148;48.554;7.834;2023-06-26T08:38:54;7.63;;;6.93;;
4268;SDS011;2148;48.554;7.834;2023-06-26T08:41:20;7.20;;;6.23;;
4268;SDS011;2148;48.554;7.834;2023-06-26T08:43:45;6.90;;;6.20;;
4268;SDS011;2148;48.554;7.834;2023-06-26T08:46:10;7.00;;;5.73;;
4268;SDS011;2148;48.554;7.834;2023-06-26T08:48:35;7.10;;;6.10;;
4268;SDS011;2148;48.554;7.834;2023-06-26T08:51:12;7.20;;;6.50;;
4268;SDS011;2148;48.554;7.834;2023-06-26T08:56:23;10.80;;;6.63;;
4268;SDS011;2148;48.554;7.834;2023-06-26T08:58:50;7.37;;;6.63;;
4268;SDS011;2148;48.554;7.834;2023-06-26T09:01:16;7.13;;;6.53;;
4268;SDS011;2148;48.554;7.834;2023-06-26T09:03:42;9.60;;;6.80;;
4268;SDS011;2148;48.554;7.834;2023-06-26T09:06:07;7.07;;;6.40;;
4268;SDS011;2148;48.554;7.834;2023-06-26T09:08:33;7.40;;;6.60;;
4268;SDS011;2148;48.554;7.834;2023-06-26T09:10:58;13.57;;;7.10;;
4268;SDS011;2148;48.554;7.834;2023-06-26T09:13:23;71.60;;;13.87;;
4268;SDS011;2148;48.554;7.834;2023-06-26T09:15:48;79.17;;;23.00;;
4268;SDS011;2148;48.554;7.834;2023-06-26T09:18:16;9.00;;;7.07;;
4268;SDS011;2148;48.554;7.834;2023-06-26T09:20:42;31.87;;;9.43;;
4268;SDS011;2148;48.554;7.834;2023-06-26T09:23:07;27.67;;;7.70;;
4268;SDS011;2148;48.554;7.834;2023-06-26T09:25:33;5.17;;;4.63;;
4268;SDS011;2148;48.554;7.834;2023-06-26T09:27:59;6.50;;;5.07;;
4268;SDS011;2148;48.554;7.834;2023-06-26T09:30:24;7.60;;;4.87;;
4268;SDS011;2148;48.554;7.834;2023-06-26T09:32:50;6.30;;;5.30;;
4268;SDS011;2148;48.554;7.834;2023-06-26T09:35:15;5.97;;;5.10;;
4268;SDS011;2148;48.554;7.834;2023-06-26T09:37:41;6.17;;;5.20;;
4268;SDS011;2148;48.554;7.834;2023-06-26T09:40:06;7.63;;;5.37;;
4268;SDS011;2148;48.554;7.834;2023-06-26T09:42:33;128.90;;;17.10;;
4268;SDS011;2148;48.554;7.834;2023-06-26T09:44:58;20.73;;;5.60;;
4268;SDS011;2148;48.554;7.834;2023-06-26T09:47:24;7.73;;;5.47;;
4268;SDS011;2148;48.554;7.834;2023-06-26T09:49:49;5.93;;;5.07;;
4268;SDS011;2148;48.554;7.834;2023-06-26T09:52:16;5.87;;;5.10;;
4268;SDS011;2148;48.554;7.834;2023-06-26T09:54:43;5.50;;;5.00;;
4268;SDS011;2148;48.554;7.834;2023-06-26T09:57:13;9.87;;;5.70;;
4268;SDS011;2148;48.554;7.834;2023-06-26T09:59:42;8.70;;;5.13;;
4268;SDS011;2148;48.554;7.834;2023-06-26T10:02:10;8.07;;;5.27;;
4268;SDS011;2148;48.554;7.834;2023-06-26T10:04:36;5.70;;;5.13;;
4268;SDS011;2148;48.554;7.834;2023-06-26T10:07:04;5.15;;;4.45;;
4268;SDS011;2148;48.554;7.834;2023-06-26T10:09:30;8.25;;;4.43;;
4268;SDS011;2148;48.554;7.834;2023-06-26T10:11:57;5.30;;;4.50;;
4268;SDS011;2148;48.554;7.834;2023-06-26T10:14:33;5.90;;;4.65;;
4268;SDS011;2148;48.554;7.834;2023-06-26T10:16:59;5.73;;;4.70;;
4268;SDS011;2148;48.554;7.834;2023-06-26T10:19:27;6.63;;;4.60;;
4268;SDS011;2148;48.554;7.834;2023-06-26T10:21:53;6.05;;;4.90;;
4268;SDS011;2148;48.554;7.834;2023-06-26T10:24:19;7.28;;;5.88;;
4268;SDS011;2148;48.554;7.834;2023-06-26T10:26:45;5.03;;;4.53;;
4268;SDS011;2148;48.554;7.834;2023-06-26T10:29:11;5.80;;;4.97;;
4268;SDS011;2148;48.554;7.834;2023-06-26T10:31:38;6.55;;;4.60;;
4268;SDS011;2148;48.554;7.834;2023-06-26T10:34:05;5.35;;;4.05;;
4268;SDS011;2148;48.554;7.834;2023-06-26T10:36:31;5.80;;;4.63;;
4268;SDS011;2148;48.554;7.834;2023-06-26T10:39:03;5.97;;;4.70;;
4268;SDS011;2148;48.554;7.834;2023-06-26T10:41:30;5.68;;;4.75;;
4268;SDS011;2148;48.554;7.834;2023-06-26T10:46:27;5.43;;;4.78;;
4268;SDS011;2148;48.554;7.834;2023-06-26T10:49:00;8.05;;;4.35;;
4268;SDS011;2148;48.554;7.834;2023-06-26T10:51:26;4.68;;;4.13;;
4268;SDS011;2148;48.554;7.834;2023-06-26T10:53:56;5.20;;;4.70;;
4268;SDS011;2148;48.554;7.834;2023-06-26T10:56:40;5.20;;;4.70;;
4268;SDS011;2148;48.554;7.834;2023-06-26T10:59:11;6.03;;;4.65;;
4268;SDS011;2148;48.554;7.834;2023-06-26T11:01:41;4.60;;;4.13;;
4268;SDS011;2148;48.554;7.834;2023-06-26T11:04:10;4.47;;;4.03;;
4268;SDS011;2148;48.554;7.834;2023-06-26T11:06:36;5.03;;;4.40;;
4268;SDS011;2148;48.554;7.834;2023-06-26T11:14:15;5.00;;;4.05;;
4268;SDS011;2148;48.554;7.834;2023-06-26T11:16:42;6.00;;;3.63;;
4268;SDS011;2148;48.554;7.834;2023-06-26T11:19:07;4.25;;;3.85;;
4268;SDS011;2148;48.554;7.834;2023-06-26T11:21:33;4.30;;;3.90;;
4268;SDS011;2148;48.554;7.834;2023-06-26T11:23:58;4.85;;;3.55;;
4268;SDS011;2148;48.554;7.834;2023-06-26T11:26:25;4.60;;;4.15;;
4268;SDS011;2148;48.554;7.834;2023-06-26T11:28:54;7.03;;;4.33;;
4268;SDS011;2148;48.554;7.834;2023-06-26T11:31:41;6.17;;;4.13;;
4268;SDS011;2148;48.554;7.834;2023-06-26T11:34:07;6.47;;;3.70;;
4268;SDS011;2148;48.554;7.834;2023-06-26T11:36:37;4.82;;;3.95;;
4268;SDS011;2148;48.554;7.834;2023-06-26T11:39:03;4.07;;;3.40;;
4268;SDS011;2148;48.554;7.834;2023-06-26T11:41:32;4.13;;;3.50;;
4268;SDS011;2148;48.554;7.834;2023-06-26T11:44:03;4.10;;;3.42;;
4268;SDS011;2148;48.554;7.834;2023-06-26T11:46:32;5.32;;;3.70;;
4268;SDS011;2148;48.554;7.834;2023-06-26T11:48:58;4.22;;;3.40;;
4268;SDS011;2148;48.554;7.834;2023-06-26T11:51:26;4.95;;;3.70;;
4268;SDS011;2148;48.554;7.834;2023-06-26T11:53:53;3.85;;;3.55;;
4268;SDS011;2148;48.554;7.834;2023-06-26T11:56:18;4.25;;;3.88;;
4268;SDS011;2148;48.554;7.834;2023-06-26T12:01:31;5.63;;;4.03;;
4268;SDS011;2148;48.554;7.834;2023-06-26T12:04:07;4.55;;;4.05;;
4268;SDS011;2148;48.554;7.834;2023-06-26T12:06:34;3.83;;;3.10;;
4268;SDS011;2148;48.554;7.834;2023-06-26T12:09:01;3.80;;;3.40;;
4268;SDS011;2148;48.554;7.834;2023-06-26T12:11:31;3.60;;;3.25;;
4268;SDS011;2148;48.554;7.834;2023-06-26T12:13:57;5.78;;;3.42;;
4268;SDS011;2148;48.554;7.834;2023-06-26T12:16:23;6.35;;;3.50;;
4268;SDS011;2148;48.554;7.834;2023-06-26T12:18:48;3.70;;;3.33;;
4268;SDS011;2148;48.554;7.834;2023-06-26T12:24:09;3.80;;;3.35;;
4268;SDS011;2148;48.554;7.834;2023-06-26T12:26:37;3.63;;;3.05;;
4268;SDS011;2148;48.554;7.834;2023-06-26T12:29:03;5.10;;;3.47;;
4268;SDS011;2148;48.554;7.834;2023-06-26T12:31:33;5.25;;;3.45;;
4268;SDS011;2148;48.554;7.834;2023-06-26T12:33:59;4.75;;;3.38;;
4268;SDS011;2148;48.554;7.834;2023-06-26T12:36:25;3.63;;;3.30;;
4268;SDS011;2148;48.554;7.834;2023-06-26T12:38:52;3.95;;;3.30;;
4268;SDS011;2148;48.554;7.834;2023-06-26T12:41:18;6.15;;;3.20;;
4268;SDS011;2148;48.554;7.834;2023-06-26T12:43:45;4.70;;;3.58;;
4268;SDS011;2148;48.554;7.834;2023-06-26T12:46:10;4.75;;;3.30;;
4268;SDS011;2148;48.554;7.834;2023-06-26T12:48:36;4.78;;;3.25;;
4268;SDS011;2148;48.554;7.834;2023-06-26T12:51:14;4.43;;;3.60;;
4268;SDS011;2148;48.554;7.834;2023-06-26T12:53:40;4.82;;;3.53;;
4268;SDS011;2148;48.554;7.834;2023-06-26T12:56:06;4.30;;;3.25;;
4268;SDS011;2148;48.554;7.834;2023-06-26T12:58:32;4.68;;;3.10;;
4268;SDS011;2148;48.554;7.834;2023-06-26T13:00:58;4.30;;;3.28;;
4268;SDS011;2148;48.554;7.834;2023-06-26T13:03:23;5.50;;;3.53;;
4268;SDS011;2148;48.554;7.834;2023-06-26T13:05:49;4.03;;;3.45;;
4268;SDS011;2148;48.554;7.834;2023-06-26T13:08:14;5.13;;;3.60;;
4268;SDS011;2148;48.554;7.834;2023-06-26T13:10:42;3.80;;;3.40;;
4268;SDS011;2148;48.554;7.834;2023-06-26T13:13:07;5.70;;;3.80;;
4268;SDS011;2148;48.554;7.834;2023-06-26T13:15:33;5.63;;;4.13;;
4268;SDS011;2148;48.554;7.834;2023-06-26T13:17:58;5.90;;;3.90;;
4268;SDS011;2148;48.554;7.834;2023-06-26T13:20:23;4.20;;;3.70;;
4268;SDS011;2148;48.554;7.834;2023-06-26T13:22:49;4.60;;;3.95;;
4268;SDS011;2148;48.554;7.834;2023-06-26T13:25:14;4.63;;;4.03;;
4268;SDS011;2148;48.554;7.834;2023-06-26T13:27:39;6.65;;;4.30;;
4268;SDS011;2148;48.554;7.834;2023-06-26T13:30:05;5.18;;;3.97;;
4268;SDS011;2148;48.554;7.834;2023-06-26T13:32:30;4.93;;;3.90;;
4268;SDS011;2148;48.554;7.834;2023-06-26T13:34:56;5.03;;;4.00;;
4268;SDS011;2148;48.554;7.834;2023-06-26T13:37:22;5.30;;;4.80;;
4268;SDS011;2148;48.554;7.834;2023-06-26T13:39:47;6.45;;;4.00;;
4268;SDS011;2148;48.554;7.834;2023-06-26T13:42:15;4.75;;;3.97;;
4268;SDS011;2148;48.554;7.834;2023-06-26T13:44:41;8.10;;;4.53;;
4268;SDS011;2148;48.554;7.834;2023-06-26T13:47:06;7.18;;;4.18;;
4268;SDS011;2148;48.554;7.834;2023-06-26T13:49:32;5.97;;;3.90;;
4268;SDS011;2148;48.554;7.834;2023-06-26T13:51:57;4.60;;;4.15;;
4268;SDS011;2148;48.554;7.834;2023-06-26T13:54:22;5.05;;;4.35;;
4268;SDS011;2148;48.554;7.834;2023-06-26T13:56:47;6.65;;;4.88;;
4268;SDS011;2148;48.554;7.834;2023-06-26T13:59:13;7.07;;;4.47;;
4268;SDS011;2148;48.554;7.834;2023-06-26T14:01:39;7.35;;;4.97;;
4268;SDS011;2148;48.554;7.834;2023-06-26T14:04:04;5.00;;;4.28;;
4268;SDS011;2148;48.554;7.834;2023-06-26T14:06:30;6.35;;;4.80;;
4268;SDS011;2148;48.554;7.834;2023-06-26T14:08:57;5.72;;;4.80;;
4268;SDS011;2148;48.554;7.834;2023-06-26T14:11:22;6.05;;;5.50;;
4268;SDS011;2148;48.554;7.834;2023-06-26T14:13:48;6.25;;;5.43;;
4268;SDS011;2148;48.554;7.834;2023-06-26T14:16:13;9.13;;;4.85;;
4268;SDS011;2148;48.554;7.834;2023-06-26T14:18:40;7.05;;;5.82;;
4268;SDS011;2148;48.554;7.834;2023-06-26T14:21:05;6.57;;;5.88;;
4268;SDS011;2148;48.554;7.834;2023-06-26T14:23:30;8.07;;;5.93;;
4268;SDS011;2148;48.554;7.834;2023-06-26T14:25:56;6.57;;;5.90;;
4268;SDS011;2148;48.554;7.834;2023-06-26T14:28:21;8.05;;;6.15;;
4268;SDS011;2148;48.554;7.834;2023-06-26T14:30:46;9.73;;;6.22;;
4268;SDS011;2148;48.554;7.834;2023-06-26T14:33:11;6.28;;;5.68;;
4268;SDS011;2148;48.554;7.834;2023-06-26T14:35:37;7.00;;;5.78;;
4268;SDS011;2148;48.554;7.834;2023-06-26T14:38:02;6.60;;;5.45;;
4268;SDS011;2148;48.554;7.834;2023-06-26T14:40:27;5.95;;;5.30;;
4268;SDS011;2148;48.554;7.834;2023-06-26T14:42:52;7.80;;;5.80;;
4268;SDS011;2148;48.554;7.834;2023-06-26T14:45:18;7.40;;;5.57;;
4268;SDS011;2148;48.554;7.834;2023-06-26T14:47:43;6.50;;;5.70;;
4268;SDS011;2148;48.554;7.834;2023-06-26T14:50:09;6.95;;;5.22;;
4268;SDS011;2148;48.554;7.834;2023-06-26T14:52:34;5.78;;;5.22;;
4268;SDS011;2148;48.554;7.834;2023-06-26T14:54:59;7.47;;;5.72;;
4268;SDS011;2148;48.554;7.834;2023-06-26T14:57:25;7.00;;;5.20;;
4268;SDS011;2148;48.554;7.834;2023-06-26T14:59:50;11.50;;;5.72;;
4268;SDS011;2148;48.554;7.834;2023-06-26T15:02:15;6.00;;;5.07;;
4268;SDS011;2148;48.554;7.834;2023-06-26T15:04:40;10.60;;;5.78;;
4268;SDS011;2148;48.554;7.834;2023-06-26T15:07:06;8.13;;;5.05;;
4268;SDS011;2148;48.554;7.834;2023-06-26T15:09:31;5.70;;;4.53;;
4268;SDS011;2148;48.554;7.834;2023-06-26T15:11:57;5.72;;;4.00;;
4268;SDS011;2148;48.554;7.834;2023-06-26T15:14:22;4.30;;;3.90;;
4268;SDS011;2148;48.554;7.834;2023-06-26T15:16:47;5.18;;;3.83;;
4268;SDS011;2148;48.554;7.834;2023-06-26T15:19:12;5.53;;;3.67;;
4268;SDS011;2148;48.554;7.834;2023-06-26T15:21:38;4.35;;;3.20;;
4268;SDS011;2148;48.554;7.834;2023-06-26T15:24:03;3.80;;;3.00;;
4268;SDS011;2148;48.554;7.834;2023-06-26T15:26:28;8.95;;;3.45;;
4268;SDS011;2148;48.554;7.834;2023-06-26T15:28:54;5.90;;;3.20;;